Time;durP1;ratioP1;P1;durP2;ratioP2;P2;SDS_P1;SDS_P2;PMS_P1;PMS_P2;Temp;Humidity;BMP_temperature;BMP_pressure;BME280_temperature;BME280_humidity;BME280_pressure;Samples;Min_cycle;Max_cycle;Signal;HPM_P1;HPM_P2
2022/07/01 00:01:23;;;;;;;14.23;6.97;;;21.30;63.30;;;;;;5006728;28;20026;-64
2022/07/01 00:03:49;;;;;;;12.85;6.90;;;21.30;63.30;;;;;;5007335;28;20045;-64
2022/07/01 00:06:15;;;;;;;15.75;7.05;;;21.30;63.30;;;;;;5005756;28;20088;-64
2022/07/01 00:08:41;;;;;;;13.23;7.18;;;21.30;63.40;;;;;;5006055;28;20029;-64
2022/07/01 00:11:07;;;;;;;12.57;6.90;;;21.30;63.30;;;;;;5007467;28;20029;-64
2022/07/01 00:13:32;;;;;;;11.73;6.75;;;21.30;63.30;;;;;;5002323;28;20045;-64
2022/07/01 00:15:58;;;;;;;11.73;6.38;;;21.30;63.30;;;;;;5007260;28;20034;-64
2022/07/01 00:18:24;;;;;;;12.43;6.65;;;21.20;63.30;;;;;;5007291;28;20100;-64
2022/07/01 00:20:50;;;;;;;13.18;7.05;;;21.20;63.30;;;;;;5007535;28;20023;-64
2022/07/01 00:23:17;;;;;;;13.40;6.68;;;21.20;63.30;;;;;;5004752;28;20037;-64
2022/07/01 00:25:43;;;;;;;12.40;6.40;;;21.20;63.30;;;;;;5004244;28;20049;-64
2022/07/01 00:28:09;;;;;;;12.25;6.38;;;21.20;63.30;;;;;;5006458;28;20025;-64
2022/07/01 00:30:34;;;;;;;11.32;6.10;;;21.20;63.20;;;;;;5003595;28;20072;-64
2022/07/01 00:33:00;;;;;;;14.13;6.70;;;21.20;63.30;;;;;;5003676;28;20042;-64
2022/07/01 00:35:26;;;;;;;12.57;6.10;;;21.20;63.30;;;;;;5005457;28;20026;-64
2022/07/01 00:37:51;;;;;;;12.45;6.65;;;21.20;63.30;;;;;;5006778;28;20030;-64
2022/07/01 00:40:17;;;;;;;11.77;6.07;;;21.20;63.30;;;;;;5005963;28;20054;-64
2022/07/01 00:42:43;;;;;;;12.50;6.13;;;21.20;63.30;;;;;;5006039;28;20546;-64
2022/07/01 00:45:10;;;;;;;11.98;6.35;;;21.10;63.20;;;;;;5005657;28;20041;-64
2022/07/01 00:47:39;;;;;;;13.27;6.57;;;21.10;63.20;;;;;;5007416;28;20037;-64
2022/07/01 00:50:09;;;;;;;12.98;6.78;;;21.10;63.20;;;;;;5018869;28;20037;-63
2022/07/01 00:52:35;;;;;;;13.50;6.25;;;21.10;63.20;;;;;;5005416;28;20445;-64
2022/07/01 00:55:04;;;;;;;12.77;6.32;;;21.10;63.20;;;;;;5004357;28;20034;-64
2022/07/01 00:57:30;;;;;;;11.73;6.50;;;21.10;63.30;;;;;;5004684;28;20062;-64
2022/07/01 00:59:56;;;;;;;12.73;6.40;;;21.10;63.20;;;;;;5007715;28;20036;-64
2022/07/01 01:02:21;;;;;;;10.48;6.10;;;21.10;63.20;;;;;;5005822;28;20093;-64
2022/07/01 01:04:47;;;;;;;14.18;6.47;;;21.10;63.30;;;;;;5023425;28;20029;-64
2022/07/01 01:07:13;;;;;;;13.88;6.38;;;21.10;63.30;;;;;;5005113;28;20029;-64
2022/07/01 01:09:39;;;;;;;11.63;5.80;;;21.10;63.20;;;;;;5006591;28;20030;-63
2022/07/01 01:12:05;;;;;;;11.55;6.25;;;21.00;63.30;;;;;;5005497;28;20034;-63
2022/07/01 01:14:45;;;;;;;11.80;6.40;;;21.00;63.30;;;;;;5003613;28;20080;-63
2022/07/01 01:17:12;;;;;;;10.95;5.60;;;21.00;63.30;;;;;;5006250;28;20054;-64
2022/07/01 01:19:38;;;;;;;11.80;5.90;;;21.00;63.30;;;;;;5006365;28;20525;-63
2022/07/01 01:22:04;;;;;;;11.75;5.72;;;21.00;63.30;;;;;;5005879;28;20030;-64
2022/07/01 01:24:30;;;;;;;11.85;6.07;;;21.00;63.30;;;;;;5021332;28;20441;-64
2022/07/01 01:26:56;;;;;;;11.50;6.35;;;21.00;63.30;;;;;;5005789;28;20702;-64
2022/07/01 01:29:21;;;;;;;10.80;5.40;;;21.00;63.30;;;;;;5005869;28;20390;-63
2022/07/01 01:31:47;;;;;;;10.75;5.63;;;21.00;63.30;;;;;;5006173;28;20038;-64
2022/07/01 01:34:13;;;;;;;10.65;5.95;;;21.00;64.40;;;;;;5005630;28;20395;-64
2022/07/01 01:36:38;;;;;;;11.00;5.60;;;21.00;63.30;;;;;;5004621;28;20033;-63
2022/07/01 01:39:12;;;;;;;11.48;5.28;;;20.90;63.20;;;;;;5005299;28;20080;-63
2022/07/01 01:41:38;;;;;;;11.02;5.90;;;20.90;63.30;;;;;;5004274;28;20029;-63
2022/07/01 01:44:04;;;;;;;11.65;5.60;;;21.00;63.30;;;;;;5004535;28;20033;-64
2022/07/01 01:46:30;;;;;;;10.55;5.60;;;21.00;63.30;;;;;;5006280;28;20014;-64
2022/07/01 01:48:56;;;;;;;10.70;5.38;;;20.90;63.40;;;;;;5006297;28;20045;-64
2022/07/01 01:51:21;;;;;;;12.35;5.60;;;20.90;63.30;;;;;;5004508;28;20152;-63
2022/07/01 01:53:47;;;;;;;11.93;6.10;;;20.90;63.30;;;;;;5006292;28;20689;-63
2022/07/01 01:56:13;;;;;;;11.30;5.70;;;20.90;63.40;;;;;;5005817;28;20640;-63
2022/07/01 01:58:42;;;;;;;11.15;5.22;;;20.90;63.30;;;;;;5004828;28;20057;-64
2022/07/01 02:01:09;;;;;;;10.65;5.43;;;20.90;63.30;;;;;;5004084;28;20030;-63
2022/07/01 02:03:35;;;;;;;11.27;5.28;;;20.80;63.30;;;;;;5003631;28;20169;-63
2022/07/01 02:06:01;;;;;;;9.30;5.47;;;20.90;63.40;;;;;;5006589;28;20097;-64
2022/07/01 02:08:26;;;;;;;10.68;5.40;;;20.80;63.40;;;;;;5004011;28;20498;-64
2022/07/01 02:10:52;;;;;;;10.30;5.25;;;20.80;63.30;;;;;;5005396;28;20066;-64
2022/07/01 02:13:18;;;;;;;12.02;5.20;;;20.80;63.30;;;;;;5004490;28;20088;-64
2022/07/01 02:15:43;;;;;;;10.52;5.43;;;20.80;63.30;;;;;;5003110;28;20037;-64
2022/07/01 02:18:09;;;;;;;10.07;4.85;;;20.80;63.30;;;;;;5005062;28;20040;-64
2022/07/01 02:20:34;;;;;;;10.50;5.30;;;20.80;63.30;;;;;;5004971;28;20026;-63
2022/07/01 02:23:00;;;;;;;10.13;5.25;;;20.80;63.30;;;;;;5004170;28;20041;-63
2022/07/01 02:25:26;;;;;;;12.10;5.30;;;20.80;63.30;;;;;;5004692;28;20037;-63
2022/07/01 02:27:51;;;;;;;10.73;5.22;;;20.80;63.40;;;;;;5006038;28;20026;-63
2022/07/01 02:30:17;;;;;;;9.38;5.03;;;20.80;63.40;;;;;;5004839;28;20030;-63
2022/07/01 02:32:42;;;;;;;10.73;5.40;;;20.80;63.30;;;;;;5004578;28;20037;-63
2022/07/01 02:35:08;;;;;;;9.55;4.60;;;20.80;63.40;;;;;;5005191;28;20026;-63
2022/07/01 02:37:34;;;;;;;11.00;5.22;;;20.70;63.30;;;;;;5004880;28;20029;-61
2022/07/01 02:40:01;;;;;;;11.00;5.18;;;20.70;63.30;;;;;;5001534;28;20052;-63
2022/07/01 02:42:26;;;;;;;10.27;5.18;;;20.70;63.30;;;;;;5004630;28;20510;-64
2022/07/01 02:44:55;;;;;;;9.85;4.80;;;20.70;63.40;;;;;;5004152;28;20030;-63
2022/07/01 02:47:21;;;;;;;10.95;5.07;;;20.70;63.40;;;;;;5003349;28;20450;-63
2022/07/01 02:49:47;;;;;;;9.32;4.85;;;20.70;63.80;;;;;;5005737;28;20474;-63
2022/07/01 02:52:13;;;;;;;9.70;4.60;;;20.70;63.40;;;;;;5004128;28;20498;-64
2022/07/01 02:54:39;;;;;;;9.88;5.03;;;20.70;63.30;;;;;;5003129;28;20038;-64
2022/07/01 02:57:05;;;;;;;10.32;4.80;;;20.70;63.40;;;;;;5005248;28;20041;-63
2022/07/01 02:59:30;;;;;;;9.73;4.93;;;20.70;63.40;;;;;;5005797;28;20030;-64
2022/07/01 03:01:56;;;;;;;9.43;5.05;;;20.70;63.40;;;;;;5002345;28;20025;-63
2022/07/01 03:04:21;;;;;;;9.27;4.90;;;20.70;63.40;;;;;;5003127;28;20117;-63
2022/07/01 03:06:47;;;;;;;8.48;4.55;;;20.60;63.30;;;;;;5005376;28;20144;-63
2022/07/01 03:09:13;;;;;;;8.52;4.57;;;20.60;63.40;;;;;;5007121;28;20586;-64
2022/07/01 03:11:38;;;;;;;8.75;4.65;;;20.60;63.40;;;;;;5008501;28;20537;-63
2022/07/01 03:14:04;;;;;;;9.43;4.60;;;20.60;63.40;;;;;;5009668;28;20060;-63
2022/07/01 03:16:29;;;;;;;9.18;4.90;;;20.60;63.40;;;;;;5009316;28;20073;-63
2022/07/01 03:18:55;;;;;;;9.00;4.53;;;20.70;63.40;;;;;;5009073;28;20065;-63
2022/07/01 03:21:21;;;;;;;8.32;4.07;;;20.60;63.40;;;;;;5007641;28;20030;-63
2022/07/01 03:23:46;;;;;;;9.10;4.63;;;20.60;63.40;;;;;;5008725;28;20037;-63
2022/07/01 03:26:14;;;;;;;9.43;4.78;;;20.60;63.40;;;;;;5006904;28;20037;-63
2022/07/01 03:28:40;;;;;;;9.40;4.65;;;20.60;63.40;;;;;;5004295;28;20054;-64
2022/07/01 03:31:06;;;;;;;10.13;4.57;;;20.60;63.40;;;;;;5007683;28;20058;-63
2022/07/01 03:33:31;;;;;;;9.18;4.80;;;20.60;63.50;;;;;;5008029;28;20038;-63
2022/07/01 03:35:57;;;;;;;8.95;4.50;;;20.60;63.40;;;;;;5009761;28;20037;-63
2022/07/01 03:38:22;;;;;;;10.38;4.53;;;20.60;63.30;;;;;;5006232;28;20031;-63
2022/07/01 03:40:48;;;;;;;11.10;4.50;;;20.60;63.30;;;;;;5009118;28;20030;-63
2022/07/01 03:43:14;;;;;;;9.32;4.20;;;20.60;64.50;;;;;;5008874;28;20064;-63
2022/07/01 03:45:39;;;;;;;9.05;4.40;;;20.60;63.50;;;;;;5007690;28;20076;-63
2022/07/01 03:48:05;;;;;;;7.90;4.00;;;20.60;63.50;;;;;;5024413;28;20061;-63
2022/07/01 03:50:31;;;;;;;8.85;4.32;;;20.50;63.40;;;;;;5007217;28;20521;-63
2022/07/01 03:55:41;;;;;;;9.00;4.43;;;20.50;63.50;;;;;;5007092;28;20501;-63
2022/07/01 03:58:06;;;;;;;8.18;3.90;;;20.50;63.50;;;;;;5006070;28;20030;-63
2022/07/01 04:00:36;;;;;;;9.48;4.47;;;20.50;63.50;;;;;;5007456;28;20462;-63
2022/07/01 04:03:03;;;;;;;9.13;4.07;;;20.50;63.50;;;;;;5009897;28;20494;-63
2022/07/01 04:05:28;;;;;;;9.27;4.10;;;20.50;63.50;;;;;;5007995;28;20105;-63
2022/07/01 04:07:54;;;;;;;8.48;3.85;;;20.50;63.50;;;;;;5007068;28;20105;-63
2022/07/01 04:10:19;;;;;;;8.07;4.20;;;20.40;63.50;;;;;;5023426;28;20057;-63
2022/07/01 04:12:45;;;;;;;9.48;4.15;;;20.40;63.50;;;;;;5007437;28;20069;-63
2022/07/01 04:15:11;;;;;;;9.57;4.53;;;20.50;63.70;;;;;;5007905;28;20443;-63
2022/07/01 04:17:36;;;;;;;9.77;4.03;;;20.50;63.50;;;;;;5005846;28;20581;-63
2022/07/01 04:20:02;;;;;;;9.90;4.28;;;20.40;63.50;;;;;;5004721;28;20034;-64
2022/07/01 04:22:35;;;;;;;9.25;4.30;;;20.50;63.60;;;;;;5003582;28;20022;-63
2022/07/01 04:25:03;;;;;;;7.68;3.60;;;20.40;63.50;;;;;;5003033;28;20030;-63
2022/07/01 04:27:28;;;;;;;8.52;3.80;;;20.40;63.50;;;;;;5006069;28;20113;-63
2022/07/01 04:29:54;;;;;;;8.82;4.15;;;20.40;63.60;;;;;;5004323;28;20465;-63
2022/07/01 04:32:20;;;;;;;9.88;4.28;;;20.40;63.60;;;;;;5004528;28;20860;-64
2022/07/01 04:34:45;;;;;;;7.78;3.80;;;20.40;63.60;;;;;;5007261;28;20767;-63
2022/07/01 04:37:12;;;;;;;7.60;3.88;;;20.40;63.60;;;;;;5007028;28;20109;-63
2022/07/01 04:39:37;;;;;;;9.63;4.13;;;20.40;63.60;;;;;;5007049;28;20031;-63
2022/07/01 04:42:04;;;;;;;6.93;3.50;;;20.40;63.60;;;;;;5007159;28;20056;-64
2022/07/01 04:44:34;;;;;;;8.35;3.83;;;20.40;63.60;;;;;;5007582;28;20029;-63
2022/07/01 04:47:00;;;;;;;9.27;3.50;;;20.40;63.60;;;;;;5006374;28;20115;-63
2022/07/01 04:49:26;;;;;;;8.23;3.63;;;20.30;63.50;;;;;;5004562;28;20107;-63
2022/07/01 04:51:53;;;;;;;8.25;3.70;;;20.30;63.50;;;;;;5006164;28;20034;-63
2022/07/01 04:54:19;;;;;;;8.25;3.63;;;20.30;63.50;;;;;;5006252;28;20026;-63
2022/07/01 04:56:45;;;;;;;7.78;3.90;;;20.30;63.50;;;;;;5005616;28;20030;-63
2022/07/01 04:59:12;;;;;;;10.50;3.60;;;20.30;63.50;;;;;;5005579;28;20029;-63
2022/07/01 05:01:38;;;;;;;8.93;3.85;;;20.30;63.40;;;;;;5004641;28;20048;-63
2022/07/01 05:04:03;;;;;;;8.82;3.83;;;20.30;63.40;;;;;;5005884;28;20030;-63
2022/07/01 05:06:29;;;;;;;7.93;3.50;;;20.30;63.50;;;;;;5004059;28;20038;-63
2022/07/01 05:08:55;;;;;;;9.52;3.70;;;20.30;63.40;;;;;;5005009;28;20375;-63
2022/07/01 05:11:20;;;;;;;9.30;3.78;;;20.30;63.40;;;;;;5004824;28;20049;-63
2022/07/01 05:13:46;;;;;;;8.25;3.45;;;20.30;63.40;;;;;;5004135;28;20048;-63
2022/07/01 05:16:12;;;;;;;8.20;3.72;;;20.30;63.40;;;;;;5004115;28;20145;-63
2022/07/01 05:24:06;;;;;;;7.63;3.50;;;20.30;63.40;;;;;;5003489;28;20029;-63
2022/07/01 05:26:32;;;;;;;16.63;3.85;;;20.30;63.40;;;;;;5005216;28;20474;-63
2022/07/01 05:28:57;;;;;;;7.43;3.35;;;20.30;63.40;;;;;;5006752;28;20148;-63
2022/07/01 05:31:23;;;;;;;7.85;3.30;;;20.30;63.30;;;;;;5005386;28;20025;-61
2022/07/01 05:33:49;;;;;;;8.85;3.45;;;20.30;63.40;;;;;;5004840;28;20107;-61
2022/07/01 05:36:15;;;;;;;9.07;3.60;;;20.30;63.50;;;;;;5005110;28;20036;-61
2022/07/01 05:38:41;;;;;;;8.68;3.35;;;20.30;63.50;;;;;;5005900;28;20439;-61
2022/07/01 05:41:06;;;;;;;6.88;3.30;;;20.30;63.50;;;;;;5005116;28;20040;-61
2022/07/01 05:43:33;;;;;;;7.93;3.47;;;20.30;63.50;;;;;;5006332;28;20075;-61
2022/07/01 05:45:58;;;;;;;7.40;3.33;;;20.30;63.50;;;;;;5006798;28;20513;-61
2022/07/01 05:48:24;;;;;;;7.93;3.53;;;20.30;63.50;;;;;;5006427;28;20029;-61
2022/07/01 05:50:50;;;;;;;8.68;3.63;;;20.30;63.50;;;;;;5006396;28;20437;-61
2022/07/01 05:53:16;;;;;;;10.98;3.75;;;20.30;63.40;;;;;;5005792;28;20037;-61
2022/07/01 05:55:42;;;;;;;6.80;3.22;;;20.30;63.40;;;;;;5003648;28;20022;-61
2022/07/01 05:58:08;;;;;;;8.07;3.40;;;20.20;63.40;;;;;;5005241;28;20172;-61
2022/07/01 06:00:34;;;;;;;8.10;3.80;;;20.30;63.40;;;;;;5007117;28;20030;-61
2022/07/01 06:03:00;;;;;;;8.57;3.45;;;20.20;63.40;;;;;;5006320;28;20018;-61
2022/07/01 06:05:26;;;;;;;6.75;3.22;;;20.20;63.40;;;;;;5004968;28;20565;-61
2022/07/01 06:07:51;;;;;;;7.65;3.40;;;20.20;63.40;;;;;;5004843;28;20092;-61
2022/07/01 06:10:17;;;;;;;8.68;3.78;;;20.30;63.40;;;;;;5005783;28;20105;-61
2022/07/01 06:12:42;;;;;;;8.65;3.45;;;20.30;63.30;;;;;;5003593;28;20069;-61
2022/07/01 06:15:10;;;;;;;7.30;3.13;;;20.30;63.40;;;;;;5005903;28;20467;-61
2022/07/01 06:17:36;;;;;;;7.38;3.17;;;20.30;63.30;;;;;;5005637;28;20050;-61
2022/07/01 06:20:02;;;;;;;8.57;3.20;;;20.30;63.30;;;;;;5004479;28;20026;-61
2022/07/01 06:22:27;;;;;;;7.47;3.47;;;20.20;63.40;;;;;;5001959;28;20705;-61
2022/07/01 06:24:53;;;;;;;8.30;3.35;;;20.20;63.40;;;;;;5004000;28;20025;-61
2022/07/01 06:27:18;;;;;;;8.50;3.08;;;20.20;63.40;;;;;;5005913;28;20048;-61
2022/07/01 06:29:45;;;;;;;6.78;3.08;;;20.20;63.40;;;;;;5006041;28;20517;-61
2022/07/01 06:32:11;;;;;;;8.43;3.38;;;20.20;63.40;;;;;;5004098;28;20125;-61
2022/07/01 06:34:36;;;;;;;8.20;3.35;;;20.20;63.30;;;;;;5004864;28;20104;-61
2022/07/01 06:37:03;;;;;;;7.63;3.28;;;20.20;63.20;;;;;;5005611;28;20038;-61
2022/07/01 06:39:29;;;;;;;7.22;3.15;;;20.20;63.20;;;;;;5004435;28;20494;-61
2022/07/01 06:41:55;;;;;;;7.50;2.88;;;20.20;63.20;;;;;;5006302;28;20026;-61
2022/07/01 06:44:20;;;;;;;8.13;3.40;;;20.30;63.30;;;;;;5007722;28;20478;-61
2022/07/01 06:46:46;;;;;;;9.15;3.30;;;20.20;63.20;;;;;;5008942;28;20041;-61
2022/07/01 06:49:12;;;;;;;8.07;3.10;;;20.20;63.20;;;;;;5009240;28;20097;-61
2022/07/01 06:51:38;;;;;;;6.03;2.90;;;20.20;63.10;;;;;;5009577;28;20037;-61
2022/07/01 06:54:03;;;;;;;6.85;3.00;;;20.20;63.20;;;;;;5009544;28;20048;-61
2022/07/01 06:56:29;;;;;;;7.07;2.85;;;20.30;63.30;;;;;;5009376;28;20018;-61
2022/07/01 06:58:55;;;;;;;8.85;3.17;;;20.20;63.20;;;;;;5008204;28;20029;-61
2022/07/01 07:01:21;;;;;;;7.65;3.45;;;20.20;63.20;;;;;;5005477;28;20475;-61
2022/07/01 07:03:46;;;;;;;7.50;3.00;;;20.30;63.30;;;;;;5008637;28;20030;-61
2022/07/01 07:06:12;;;;;;;7.95;3.13;;;20.30;63.20;;;;;;5008702;28;20030;-61
2022/07/01 07:08:38;;;;;;;6.35;3.00;;;20.30;63.20;;;;;;5008086;28;20113;-61
2022/07/01 07:11:04;;;;;;;7.85;3.05;;;20.30;63.20;;;;;;5010723;28;20022;-61
2022/07/01 07:13:29;;;;;;;8.93;3.20;;;20.30;63.20;;;;;;5008544;28;20045;-61
2022/07/01 07:15:55;;;;;;;7.05;2.95;;;20.30;63.20;;;;;;5008612;28;20041;-61
2022/07/01 07:18:21;;;;;;;6.53;3.10;;;20.30;63.10;;;;;;5008177;28;20040;-61
2022/07/01 07:20:49;;;;;;;7.18;2.85;;;20.30;63.10;;;;;;5008540;28;20121;-61
2022/07/01 07:23:15;;;;;;;6.45;3.15;;;20.30;63.20;;;;;;5008292;28;20026;-61
2022/07/01 07:25:40;;;;;;;6.85;3.40;;;20.30;63.10;;;;;;5004966;28;20108;-61
2022/07/01 07:28:06;;;;;;;5.95;3.03;;;20.30;63.10;;;;;;5008417;28;20036;-61
2022/07/01 07:30:32;;;;;;;7.43;3.20;;;20.30;63.00;;;;;;5008847;28;20014;-61
2022/07/01 07:32:57;;;;;;;6.43;2.85;;;20.30;63.00;;;;;;5009709;28;20062;-61
2022/07/01 07:35:23;;;;;;;9.13;3.08;;;20.30;63.10;;;;;;5007496;28;20025;-61
2022/07/01 07:37:49;;;;;;;6.57;2.97;;;20.30;63.00;;;;;;5009445;28;20026;-61
2022/07/01 07:40:18;;;;;;;6.60;2.80;;;20.40;63.00;;;;;;5005453;28;20180;-61
2022/07/01 07:42:44;;;;;;;6.13;2.80;;;20.30;62.90;;;;;;5009159;28;20029;-61
2022/07/01 07:45:11;;;;;;;6.88;2.90;;;20.40;62.90;;;;;;5007843;28;20053;-61
2022/07/01 07:47:37;;;;;;;6.40;2.58;;;20.40;62.90;;;;;;5009627;28;20506;-61
2022/07/01 07:50:03;;;;;;;8.95;3.20;;;20.40;62.90;;;;;;5009166;28;20036;-61
2022/07/01 07:52:28;;;;;;;6.18;2.88;;;20.40;62.90;;;;;;5012865;28;20035;-61
2022/07/01 07:54:54;;;;;;;6.28;3.10;;;20.40;62.90;;;;;;5008233;28;20028;-61
2022/07/01 07:57:20;;;;;;;5.10;2.60;;;20.40;64.00;;;;;;5008557;28;20028;-61
2022/07/01 07:59:45;;;;;;;6.55;2.90;;;20.30;62.90;;;;;;5007113;28;20021;-61
2022/07/01 08:02:11;;;;;;;6.55;2.70;;;20.40;63.00;;;;;;5008378;28;20026;-61
2022/07/01 08:04:37;;;;;;;6.80;3.08;;;20.30;63.00;;;;;;5006999;28;20057;-61
2022/07/01 08:07:03;;;;;;;7.05;3.13;;;20.40;63.10;;;;;;5007586;28;20486;-61
2022/07/01 08:09:28;;;;;;;7.07;3.15;;;20.40;63.00;;;;;;5007675;28;20383;-61
2022/07/01 08:11:54;;;;;;;5.57;2.60;;;20.40;62.90;;;;;;5007978;28;20487;-61
2022/07/01 08:14:20;;;;;;;5.80;2.80;;;20.40;62.90;;;;;;5005369;28;20033;-61
2022/07/01 08:16:45;;;;;;;6.18;3.03;;;20.40;62.90;;;;;;5008699;28;20089;-61
2022/07/01 08:19:11;;;;;;;6.55;3.08;;;20.40;62.90;;;;;;5006940;28;20475;-61
2022/07/01 08:21:36;;;;;;;7.20;2.80;;;20.40;63.00;;;;;;5007163;28;20030;-61
2022/07/01 08:24:02;;;;;;;6.55;2.80;;;20.40;63.00;;;;;;5007686;28;20038;-61
2022/07/01 08:26:28;;;;;;;6.88;2.80;;;20.40;63.00;;;;;;5009274;28;20018;-61
2022/07/01 08:28:53;;;;;;;6.75;3.13;;;20.40;63.00;;;;;;5007228;28;20022;-61
2022/07/01 08:31:19;;;;;;;6.50;3.00;;;20.40;63.00;;;;;;5007297;28;20501;-61
2022/07/01 08:33:45;;;;;;;6.43;2.90;;;20.40;62.90;;;;;;5007446;28;20068;-61
2022/07/01 08:36:10;;;;;;;6.15;2.97;;;20.50;62.90;;;;;;5006900;28;20022;-61
2022/07/01 08:38:36;;;;;;;5.85;2.65;;;20.50;62.80;;;;;;5006387;28;20030;-62
2022/07/01 08:41:03;;;;;;;6.22;2.70;;;20.50;62.80;;;;;;5007660;28;20038;-61
2022/07/01 08:43:28;;;;;;;7.00;2.78;;;20.50;62.80;;;;;;5005931;28;20042;-61
2022/07/01 08:45:54;;;;;;;6.85;2.80;;;20.50;62.70;;;;;;5008148;28;20049;-61
2022/07/01 08:48:20;;;;;;;5.88;2.58;;;20.60;62.80;;;;;;5006263;28;20037;-61
2022/07/01 08:50:46;;;;;;;6.40;3.00;;;20.60;62.70;;;;;;5018007;28;20084;-61
2022/07/01 08:53:12;;;;;;;6.30;2.88;;;20.60;62.70;;;;;;5006693;28;20122;-61
2022/07/01 08:58:23;;;;;;;6.03;2.70;;;20.60;62.60;;;;;;5007705;28;20529;-61
2022/07/01 09:00:49;;;;;;;6.78;3.10;;;20.60;62.70;;;;;;5006291;28;20065;-61
2022/07/01 09:03:14;;;;;;;6.32;3.00;;;20.60;62.60;;;;;;5007367;28;20068;-61
2022/07/01 09:05:40;;;;;;;6.53;2.60;;;20.60;62.60;;;;;;5005129;28;20060;-61
2022/07/01 09:08:06;;;;;;;5.82;2.70;;;20.70;62.60;;;;;;4990961;28;20021;-62
2022/07/01 09:10:34;;;;;;;5.45;2.50;;;20.70;62.60;;;;;;5007503;28;20054;-61
2022/07/01 09:13:11;;;;;;;5.97;2.63;;;20.70;62.60;;;;;;5003288;28;20065;-61
2022/07/01 09:15:37;;;;;;;6.15;2.63;;;20.70;62.70;;;;;;5007984;28;20108;-61
2022/07/01 09:18:10;;;;;;;5.75;2.47;;;20.70;62.70;;;;;;5006181;28;20077;-61
2022/07/01 09:20:46;;;;;;;5.82;2.58;;;20.70;62.70;;;;;;5013389;28;20100;-61
2022/07/01 09:23:16;;;;;;;6.00;2.65;;;20.70;62.70;;;;;;5003341;28;20034;-61
2022/07/01 09:25:47;;;;;;;5.00;2.60;;;20.70;62.70;;;;;;5006014;28;20089;-61
2022/07/01 09:28:17;;;;;;;5.05;2.50;;;20.70;62.60;;;;;;5003024;28;20532;-61
2022/07/01 09:30:44;;;;;;;6.25;2.85;;;20.70;63.70;;;;;;5004862;28;20064;-61
2022/07/01 09:33:17;;;;;;;5.70;2.60;;;20.70;62.70;;;;;;5005460;28;20038;-61
2022/07/01 09:35:44;;;;;;;6.57;2.92;;;20.70;62.70;;;;;;5005134;28;20516;-61
2022/07/01 09:38:11;;;;;;;7.13;2.55;;;20.70;62.80;;;;;;5003170;28;20026;-61
2022/07/01 09:40:49;;;;;;;6.25;2.92;;;20.70;62.80;;;;;;5003918;28;20064;-61
2022/07/01 09:43:20;;;;;;;5.43;2.50;;;20.70;62.80;;;;;;5001626;28;20486;-61
2022/07/01 09:45:59;;;;;;;6.22;2.60;;;20.70;62.80;;;;;;5003631;28;20065;-61
2022/07/01 09:48:27;;;;;;;5.32;2.40;;;20.70;62.80;;;;;;5012124;28;20033;-61
2022/07/01 09:50:53;;;;;;;5.28;2.58;;;20.70;63.90;;;;;;5006533;28;20030;-62
2022/07/01 09:53:19;;;;;;;5.50;2.55;;;20.80;62.80;;;;;;5005234;28;20406;-61
2022/07/01 09:55:46;;;;;;;4.70;2.35;;;20.80;63.00;;;;;;5005547;28;20065;-61
2022/07/01 09:58:12;;;;;;;4.93;2.50;;;20.80;62.90;;;;;;5005636;28;20021;-61
2022/07/01 10:00:38;;;;;;;4.75;2.40;;;20.80;62.70;;;;;;5006269;28;20121;-61
2022/07/01 10:03:05;;;;;;;5.88;2.40;;;20.80;63.00;;;;;;5006412;28;20122;-61
2022/07/01 10:05:32;;;;;;;4.95;2.33;;;20.80;63.00;;;;;;5005903;28;20104;-61
2022/07/01 10:08:07;;;;;;;4.85;2.40;;;20.80;63.00;;;;;;5004774;28;20037;-61
2022/07/01 10:10:39;;;;;;;5.43;2.53;;;20.80;63.10;;;;;;5003848;28;20034;-61
2022/07/01 10:13:06;;;;;;;5.97;2.60;;;20.80;63.20;;;;;;5001010;28;20045;-61
2022/07/01 10:15:31;;;;;;;8.40;2.97;;;20.70;63.20;;;;;;5000373;28;20022;-61
2022/07/01 10:17:57;;;;;;;5.15;2.45;;;20.70;63.70;;;;;;4999571;28;20053;-61
2022/07/01 10:20:27;;;;;;;8.00;2.75;;;20.80;63.70;;;;;;5003719;28;20034;-61
2022/07/01 10:23:06;;;;;;;8.65;2.80;;;20.80;63.90;;;;;;5001048;28;20032;-61
2022/07/01 10:25:51;;;;;;;6.88;2.50;;;20.80;63.80;;;;;;5002984;28;20034;-61
2022/07/01 10:28:24;;;;;;;5.95;2.30;;;20.80;63.70;;;;;;5006170;28;20168;-61
2022/07/01 10:30:56;;;;;;;5.30;2.40;;;20.80;63.80;;;;;;5006689;28;20071;-61
2022/07/01 10:33:31;;;;;;;4.82;2.40;;;20.80;63.70;;;;;;5005645;28;20037;-61
2022/07/01 10:36:05;;;;;;;6.85;2.97;;;20.80;63.80;;;;;;5004704;28;20129;-61
2022/07/01 10:38:31;;;;;;;8.00;3.22;;;20.80;63.60;;;;;;5006429;28;20030;-61
2022/07/01 10:41:09;;;;;;;7.32;3.30;;;20.80;63.80;;;;;;5005957;28;20690;-61
2022/07/01 10:43:35;;;;;;;8.02;2.90;;;20.80;63.80;;;;;;5004215;28;20117;-61
2022/07/01 10:46:01;;;;;;;7.97;2.90;;;20.80;63.80;;;;;;5005433;28;20034;-61
2022/07/01 10:48:28;;;;;;;7.57;3.22;;;20.90;63.70;;;;;;5005536;28;20022;-61
2022/07/01 10:50:54;;;;;;;6.93;2.75;;;20.90;63.70;;;;;;5004836;28;20116;-61
2022/07/01 10:53:19;;;;;;;8.30;3.28;;;20.90;63.70;;;;;;5005666;28;20454;-61
2022/07/01 10:55:48;;;;;;;6.55;2.83;;;20.90;63.40;;;;;;5003540;28;20022;-61
2022/07/01 10:58:14;;;;;;;6.43;2.75;;;20.90;63.50;;;;;;5007316;28;20038;-61
2022/07/01 11:00:57;;;;;;;7.53;3.05;;;20.90;63.50;;;;;;5005895;28;20022;-61
2022/07/01 11:03:23;;;;;;;6.43;2.63;;;20.90;63.50;;;;;;5018787;28;20056;-61
2022/07/01 11:05:51;;;;;;;9.05;2.83;;;20.90;63.30;;;;;;5005634;28;20057;-61
2022/07/01 11:08:17;;;;;;;5.45;2.60;;;20.90;63.20;;;;;;5004967;28;20018;-61
2022/07/01 11:10:43;;;;;;;6.85;3.00;;;20.90;63.40;;;;;;5006501;28;20084;-61
2022/07/01 11:13:12;;;;;;;5.20;2.55;;;20.90;63.40;;;;;;5005704;28;20525;-61
2022/07/01 11:15:37;;;;;;;5.95;2.65;;;20.90;63.30;;;;;;5005892;28;20030;-61
2022/07/01 11:18:03;;;;;;;7.57;3.25;;;21.00;63.40;;;;;;5005492;28;20604;-61
2022/07/01 11:20:31;;;;;;;6.43;2.78;;;21.00;63.50;;;;;;5005523;28;20029;-61
2022/07/01 11:22:56;;;;;;;7.28;2.80;;;21.00;63.40;;;;;;5004967;28;20108;-62
2022/07/01 11:25:22;;;;;;;6.00;2.70;;;21.00;63.30;;;;;;5004050;28;20692;-61
2022/07/01 11:27:51;;;;;;;5.53;2.50;;;21.00;63.30;;;;;;5005242;28;20037;-61
2022/07/01 11:30:18;;;;;;;6.13;2.50;;;21.00;63.50;;;;;;5008740;28;20560;-62
2022/07/01 11:32:46;;;;;;;6.97;2.65;;;21.00;63.60;;;;;;5010166;28;20042;-61
2022/07/01 11:40:51;;;;;;;6.18;2.50;;;21.00;63.70;;;;;;5008539;28;20052;-62
2022/07/01 11:43:21;;;;;;;7.75;2.60;;;21.10;63.80;;;;;;5009808;28;20483;-61
2022/07/01 11:45:46;;;;;;;6.93;2.25;;;21.10;63.80;;;;;;5009497;28;20068;-61
2022/07/01 11:48:12;;;;;;;8.00;2.83;;;21.00;63.60;;;;;;5008607;28;20465;-61
2022/07/01 11:50:38;;;;;;;6.05;2.58;;;21.10;63.70;;;;;;5010268;28;20570;-61
2022/07/01 11:53:03;;;;;;;6.18;2.50;;;21.10;63.80;;;;;;5006704;28;20069;-61
2022/07/01 11:55:29;;;;;;;6.32;2.70;;;21.10;63.70;;;;;;5008740;28;20022;-61
2022/07/01 11:57:56;;;;;;;6.13;2.50;;;21.10;63.90;;;;;;5005503;28;20038;-61
2022/07/01 12:00:22;;;;;;;6.30;2.67;;;21.10;63.90;;;;;;5009730;28;20029;-61
2022/07/01 12:02:49;;;;;;;5.43;2.53;;;21.10;63.60;;;;;;5008820;28;20026;-61
2022/07/01 12:05:15;;;;;;;6.20;2.58;;;21.10;63.70;;;;;;5006222;28;20057;-61
2022/07/01 12:07:41;;;;;;;5.30;2.50;;;21.20;63.80;;;;;;5006818;28;20509;-61
2022/07/01 12:10:07;;;;;;;6.68;2.55;;;21.20;63.80;;;;;;5006899;28;20065;-61
2022/07/01 12:12:33;;;;;;;5.28;2.33;;;21.20;63.60;;;;;;5008839;28;20116;-61
2022/07/01 12:14:59;;;;;;;5.55;2.50;;;21.20;63.50;;;;;;5008591;28;20164;-61
2022/07/01 12:17:25;;;;;;;5.90;2.40;;;21.20;63.60;;;;;;5007110;28;20405;-61
2022/07/01 12:19:52;;;;;;;6.53;2.30;;;21.30;63.50;;;;;;5006216;28;20026;-61
2022/07/01 12:22:24;;;;;;;5.32;2.35;;;21.30;63.50;;;;;;5007944;28;20072;-61
2022/07/01 12:24:50;;;;;;;4.60;2.28;;;21.30;63.60;;;;;;5008479;28;20025;-61
2022/07/01 12:27:16;;;;;;;6.40;2.58;;;21.30;63.40;;;;;;5007518;28;20034;-61
2022/07/01 12:29:50;;;;;;;6.38;2.50;;;21.30;63.50;;;;;;5006818;28;20037;-61
2022/07/01 12:32:23;;;;;;;5.85;2.33;;;21.30;63.60;;;;;;5008165;28;20033;-61
2022/07/01 12:35:01;;;;;;;6.38;2.63;;;21.30;63.50;;;;;;5005638;28;20502;-61
2022/07/01 12:37:27;;;;;;;4.53;2.10;;;21.30;63.50;;;;;;5003664;28;20101;-61
2022/07/01 12:40:18;;;;;;;6.18;2.30;;;21.30;63.50;;;;;;5004671;28;20030;-61
2022/07/01 12:42:44;;;;;;;5.90;2.60;;;21.30;63.50;;;;;;5008620;28;20034;-62
2022/07/01 12:45:11;;;;;;;4.75;2.20;;;21.30;63.50;;;;;;5002978;28;20388;-61
2022/07/01 12:47:48;;;;;;;6.25;2.30;;;21.30;63.60;;;;;;5006950;28;20032;-62
2022/07/01 12:50:27;;;;;;;8.02;2.40;;;21.30;64.90;;;;;;5003115;28;20030;-61
2022/07/01 12:53:01;;;;;;;5.70;2.15;;;21.30;63.60;;;;;;5005368;28;20526;-61
2022/07/01 12:55:27;;;;;;;5.55;2.08;;;21.30;63.60;;;;;;5003058;28;20530;-61
2022/07/01 12:57:56;;;;;;;4.72;2.22;;;21.30;63.70;;;;;;5004514;28;20042;-61
2022/07/01 13:00:22;;;;;;;4.30;2.00;;;21.30;63.40;;;;;;5007807;28;20026;-61